Time,TemperatureF,DewpointF,PressureIn,WindDirection,WindDirectionDegrees,WindSpeedMPH,WindSpeedGustMPH,Humidity,HourlyPrecipIn,Conditions,Clouds,dailyrainin,SoftwareType,DateUTC
2013-03-27 00:00:00,24.4,21.9,30.37,NW,320,0.0,14.0,90,0.00,,,0.11,Wunderground v.1.15,2013-03-27 05:00:00,
2013-03-27 00:09:00,24.3,21.8,30.37,NW,320,0.0,14.0,90,0.00,,,0.00,Wunderground v.1.15,2013-03-27 05:09:00,
2013-03-27 00:14:00,24.2,21.7,30.37,NW,321,0.0,14.0,90,0.00,,,0.00,Wunderground v.1.15,2013-03-27 05:14:00,
2013-03-27 00:24:00,23.7,21.5,30.37,NW,320,0.0,14.0,91,0.00,,,0.00,Wunderground v.1.15,2013-03-27 05:24:00,
2013-03-27 00:35:00,24.0,21.8,30.37,NW,321,0.0,14.0,91,0.00,,,0.00,Wunderground v.1.15,2013-03-27 05:35:00,
2013-03-27 00:45:00,24.0,21.8,30.37,NW,321,0.0,14.0,91,0.00,,,0.00,Wunderground v.1.15,2013-03-27 05:45:00,
2013-03-27 00:54:00,24.2,22.0,30.37,NW,321,0.0,14.0,91,0.00,,,0.00,Wunderground v.1.15,2013-03-27 05:54:00,
2013-03-27 01:04:00,24.0,21.5,30.37,NW,320,0.0,14.0,90,0.00,,,0.00,Wunderground v.1.15,2013-03-27 06:04:00,
2013-03-27 01:10:00,24.0,21.8,30.37,NW,320,0.0,14.0,91,0.00,,,0.00,Wunderground v.1.15,2013-03-27 06:10:00,
2013-03-27 01:20:00,24.7,22.4,30.36,NNW,327,0.0,14.0,91,0.00,,,0.00,Wunderground v.1.15,2013-03-27 06:20:00,
2013-03-27 01:29:00,26.5,23.4,30.36,NNW,338,0.0,14.0,88,0.00,,,0.00,Wunderground v.1.15,2013-03-27 06:29:00,
2013-03-27 01:39:00,27.1,23.5,30.36,NNW,338,0.0,14.0,86,0.00,,,0.00,Wunderground v.1.15,2013-03-27 06:39:00,
2013-03-27 01:45:00,26.6,22.7,30.36,NNW,338,0.0,14.0,85,0.00,,,0.00,Wunderground v.1.15,2013-03-27 06:45:00,
2013-03-27 01:55:00,25.6,22.3,30.35,NNW,338,0.0,14.0,87,0.00,,,0.00,Wunderground v.1.15,2013-03-27 06:55:00,
2013-03-27 02:05:00,24.7,21.7,30.36,NNW,338,0.0,14.0,88,0.00,,,0.00,Wunderground v.1.15,2013-03-27 07:05:00,
2013-03-27 02:14:00,25.2,22.4,30.35,NNW,338,0.0,14.0,89,0.00,,,0.00,Wunderground v.1.15,2013-03-27 07:14:00,
2013-03-27 02:24:00,25.1,21.8,30.34,NNW,338,0.0,14.0,87,0.00,,,0.00,Wunderground v.1.15,2013-03-27 07:24:00,
2013-03-27 02:35:00,25.7,22.4,30.34,NNW,345,0.0,14.0,87,0.00,,,0.00,Wunderground v.1.15,2013-03-27 07:35:00,
2013-03-27 02:45:00,26.5,22.6,30.34,North,354,0.0,14.0,85,0.00,,,0.00,Wunderground v.1.15,2013-03-27 07:45:00,
2013-03-27 02:54:00,26.1,22.2,30.35,North,354,0.0,14.0,85,0.00,,,0.00,Wunderground v.1.15,2013-03-27 07:54:00,
2013-03-27 03:04:00,25.6,22.0,30.35,North,354,0.0,14.0,86,0.00,,,0.00,Wunderground v.1.15,2013-03-27 08:04:00,
2013-03-27 03:10:00,25.5,21.9,30.35,North,354,0.0,14.0,86,0.00,,,0.00,Wunderground v.1.15,2013-03-27 08:10:00,
2013-03-27 03:20:00,25.3,21.7,30.35,North,354,0.0,14.0,86,0.00,,,0.00,Wunderground v.1.15,2013-03-27 08:20:00,
2013-03-27 03:30:00,24.4,21.1,30.35,North,354,0.0,14.0,87,0.00,,,0.00,Wunderground v.1.15,2013-03-27 08:30:00,
2013-03-27 03:39:00,23.8,21.0,30.35,North,354,0.0,14.0,89,0.00,,,0.00,Wunderground v.1.15,2013-03-27 08:39:00,
2013-03-27 03:50:00,23.2,20.4,30.36,North,354,0.0,14.0,89,0.00,,,0.00,Wunderground v.1.15,2013-03-27 08:50:00,
2013-03-27 04:00:00,22.8,20.6,30.36,North,354,0.0,14.0,91,0.00,,,0.00,Wunderground v.1.15,2013-03-27 09:00:00,
2013-03-27 04:09:00,22.4,20.2,30.35,North,354,0.0,14.0,91,0.00,,,0.00,Wunderground v.1.15,2013-03-27 09:09:00,
2013-03-27 04:19:00,22.1,19.9,30.34,North,354,0.0,14.0,91,0.00,,,0.00,Wunderground v.1.15,2013-03-27 09:19:00,
2013-03-27 04:30:00,22.5,20.8,30.34,North,354,0.0,14.0,93,0.00,,,0.00,Wunderground v.1.15,2013-03-27 09:30:00,
2013-03-27 04:40:00,22.3,20.3,30.34,North,354,0.0,14.0,92,0.00,,,0.00,Wunderground v.1.15,2013-03-27 09:40:00,
2013-03-27 04:49:00,22.9,20.9,30.34,North,354,0.0,14.0,92,0.00,,,0.00,Wunderground v.1.15,2013-03-27 09:49:00,
2013-03-27 04:59:00,23.6,21.6,30.34,ENE,70,0.0,14.0,92,0.00,,,0.00,Wunderground v.1.15,2013-03-27 09:59:00,
2013-03-27 05:10:00,24.3,22.3,30.34,NNE,25,0.0,14.0,92,0.00,,,0.00,Wunderground v.1.15,2013-03-27 10:10:00,
2013-03-27 05:20:00,25.6,23.1,30.34,NE,42,0.0,14.0,90,0.00,,,0.00,Wunderground v.1.15,2013-03-27 10:20:00,
2013-03-27 05:29:00,25.8,23.0,30.34,NE,41,0.0,14.0,89,0.00,,,0.00,Wunderground v.1.15,2013-03-27 10:29:00,
2013-03-27 05:39:00,25.4,22.3,30.34,NE,41,0.0,14.0,88,0.00,,,0.00,Wunderground v.1.15,2013-03-27 10:39:00,
2013-03-27 05:45:00,25.3,22.2,30.34,NE,41,0.0,14.0,88,0.00,,,0.00,Wunderground v.1.15,2013-03-27 10:45:00,
2013-03-27 05:55:00,24.8,22.0,30.35,NE,41,0.0,14.0,89,0.00,,,0.00,Wunderground v.1.15,2013-03-27 10:55:00,
2013-03-27 06:04:00,24.4,21.6,30.35,NE,41,0.0,14.0,89,0.00,,,0.00,Wunderground v.1.15,2013-03-27 11:04:00,
2013-03-27 06:14:00,24.1,21.3,30.36,NE,41,0.0,14.0,89,0.00,,,0.00,Wunderground v.1.15,2013-03-27 11:14:00,
2013-03-27 06:20:00,23.9,21.1,30.36,NE,41,0.0,14.0,89,0.00,,,0.00,Wunderground v.1.15,2013-03-27 11:20:00,
2013-03-27 06:30:00,23.6,21.1,30.36,NE,41,0.0,14.0,90,0.00,,,0.00,Wunderground v.1.15,2013-03-27 11:30:00,
2013-03-27 06:40:00,23.9,21.7,30.36,NE,41,0.0,14.0,91,0.00,,,0.00,Wunderground v.1.15,2013-03-27 11:40:00,
2013-03-27 06:49:00,24.2,22.0,30.37,NE,41,0.0,14.0,91,0.00,,,0.00,Wunderground v.1.15,2013-03-27 11:49:00,
2013-03-27 07:00:00,24.2,22.0,30.37,NE,41,0.0,14.0,91,0.00,,,0.00,Wunderground v.1.15,2013-03-27 12:00:00,
2013-03-27 07:10:00,24.5,22.2,30.37,NE,41,0.0,14.0,91,0.00,,,0.00,Wunderground v.1.15,2013-03-27 12:10:00,
2013-03-27 07:19:00,25.4,23.1,30.37,NE,41,0.0,14.0,91,0.00,,,0.00,Wunderground v.1.15,2013-03-27 12:19:00,
2013-03-27 07:29:00,26.7,24.2,30.37,NNE,26,0.0,14.0,90,0.00,,,0.00,Wunderground v.1.15,2013-03-27 12:29:00,
2013-03-27 07:40:00,27.9,24.8,30.37,NE,38,1.0,14.0,88,0.00,,,0.00,Wunderground v.1.15,2013-03-27 12:40:00,
2013-03-27 07:50:00,28.9,25.2,30.38,NE,42,1.0,14.0,86,0.00,,,0.00,Wunderground v.1.15,2013-03-27 12:50:00,
2013-03-27 07:59:00,29.5,25.5,30.38,ESE,118,0.0,14.0,85,0.00,,,0.00,Wunderground v.1.15,2013-03-27 12:59:00,
2013-03-27 08:09:00,31.4,27.1,30.38,ESE,118,0.0,14.0,84,0.00,,,0.00,Wunderground v.1.15,2013-03-27 13:09:00,
2013-03-27 08:15:00,32.4,27.8,30.38,ESE,118,0.0,14.0,83,0.00,,,0.00,Wunderground v.1.15,2013-03-27 13:15:00,
2013-03-27 08:25:00,34.3,28.8,30.38,East,80,0.0,14.0,80,0.00,,,0.00,Wunderground v.1.15,2013-03-27 13:25:00,
2013-03-27 08:35:00,34.5,28.3,30.38,NNE,30,0.0,14.0,78,0.00,,,0.00,Wunderground v.1.15,2013-03-27 13:35:00,
2013-03-27 08:44:00,35.6,28.8,30.37,NNE,30,0.0,14.0,76,0.00,,,0.00,Wunderground v.1.15,2013-03-27 13:44:00,
2013-03-27 08:55:00,36.1,28.9,30.37,ESE,103,0.0,14.0,75,0.00,,,0.00,Wunderground v.1.15,2013-03-27 13:55:00,
2013-03-27 09:05:00,36.9,28.7,30.37,SE,128,1.0,14.0,72,0.00,,,0.00,Wunderground v.1.15,2013-03-27 14:05:00,
2013-03-27 09:14:00,37.3,28.1,30.37,ESE,106,1.0,14.0,69,0.00,,,0.00,Wunderground v.1.15,2013-03-27 14:14:00,
2013-03-27 09:24:00,38.7,28.7,30.37,East,87,1.0,14.0,67,0.00,,,0.00,Wunderground v.1.15,2013-03-27 14:24:00,
2013-03-27 09:35:00,38.8,28.0,30.37,SE,131,2.0,14.0,65,0.00,,,0.00,Wunderground v.1.15,2013-03-27 14:35:00,
2013-03-27 09:45:00,39.1,27.6,30.37,East,96,2.0,14.0,63,0.00,,,0.00,Wunderground v.1.15,2013-03-27 14:45:00,
2013-03-27 09:54:00,39.8,28.6,30.37,SE,132,2.0,14.0,64,0.00,,,0.00,Wunderground v.1.15,2013-03-27 14:54:00,
2013-03-27 10:04:00,41.1,29.5,30.37,ESE,106,1.0,3.0,63,0.00,,,0.00,Wunderground v.1.15,2013-03-27 15:04:00,
2013-03-27 10:15:00,42.0,29.5,30.37,ESE,115,1.0,14.0,61,0.00,,,0.00,Wunderground v.1.15,2013-03-27 15:15:00,
2013-03-27 10:25:00,42.3,29.4,30.37,East,89,2.0,14.0,60,0.00,,,0.00,Wunderground v.1.15,2013-03-27 15:25:00,
2013-03-27 10:34:00,43.4,30.0,30.37,ENE,67,2.0,14.0,59,0.00,,,0.00,Wunderground v.1.15,2013-03-27 15:34:00,
2013-03-27 10:44:00,44.5,29.8,30.37,SE,127,2.0,14.0,56,0.00,,,0.00,Wunderground v.1.15,2013-03-27 15:44:00,
2013-03-27 10:50:00,45.3,30.5,30.37,SSW,204,2.0,14.0,56,0.00,,,0.00,Wunderground v.1.15,2013-03-27 15:50:00,
2013-03-27 11:00:00,45.4,28.8,30.37,East,94,2.0,2.0,52,0.00,,,0.00,Wunderground v.1.15,2013-03-27 16:00:00,
2013-03-27 11:10:00,45.5,28.9,30.37,ESE,117,1.0,14.0,52,0.00,,,0.00,Wunderground v.1.15,2013-03-27 16:10:00,
2013-03-27 11:15:00,45.8,30.1,30.37,East,96,2.0,14.0,54,0.00,,,0.00,Wunderground v.1.15,2013-03-27 16:15:00,
2013-03-27 11:24:00,46.4,27.2,30.37,WNW,289,1.0,14.0,47,0.00,,,0.00,Wunderground v.1.15,2013-03-27 16:24:00,
2013-03-27 11:35:00,47.3,27.5,30.36,SE,138,1.0,14.0,46,0.00,,,0.00,Wunderground v.1.15,2013-03-27 16:35:00,
2013-03-27 11:40:00,47.4,27.6,30.36,SSW,197,1.0,1.0,46,0.00,,,0.00,Wunderground v.1.15,2013-03-27 16:40:00,
2013-03-27 11:45:00,47.5,28.8,30.36,NE,53,1.0,14.0,48,0.00,,,0.00,Wunderground v.1.15,2013-03-27 16:45:00,
2013-03-27 11:54:00,48.1,29.3,30.36,NNE,30,1.0,14.0,48,0.00,,,0.00,Wunderground v.1.15,2013-03-27 16:54:00,
2013-03-27 12:04:00,48.3,27.4,30.35,NNE,27,2.0,5.0,44,0.00,,,0.00,Wunderground v.1.15,2013-03-27 17:04:00,
2013-03-27 12:14:00,46.7,27.0,30.34,NNE,19,3.0,14.0,46,0.00,,,0.00,Wunderground v.1.15,2013-03-27 17:14:00,
2013-03-27 12:20:00,46.8,27.6,30.34,NNW,328,2.0,2.0,47,0.00,,,0.00,Wunderground v.1.15,2013-03-27 17:20:00,
2013-03-27 12:30:00,47.0,28.3,30.35,ESE,113,2.0,2.0,48,0.00,,,0.00,Wunderground v.1.15,2013-03-27 17:30:00,
2013-03-27 12:39:00,48.1,28.8,30.35,East,96,1.0,14.0,47,0.00,,,0.00,Wunderground v.1.15,2013-03-27 17:39:00,
2013-03-27 12:44:00,48.3,27.4,30.35,North,1,2.0,14.0,44,0.00,,,0.00,Wunderground v.1.15,2013-03-27 17:44:00,
2013-03-27 12:55:00,48.5,28.1,30.34,ESE,120,1.0,14.0,45,0.00,,,0.00,Wunderground v.1.15,2013-03-27 17:55:00,
2013-03-27 13:05:00,47.9,27.0,30.34,NNE,31,3.0,14.0,44,0.00,,,0.00,Wunderground v.1.15,2013-03-27 18:05:00,
2013-03-27 13:15:00,48.1,28.8,30.34,North,1,2.0,14.0,47,0.00,,,0.00,Wunderground v.1.15,2013-03-27 18:15:00,
2013-03-27 13:24:00,47.7,27.9,30.34,NNE,22,3.0,14.0,46,0.00,,,0.00,Wunderground v.1.15,2013-03-27 18:24:00,
2013-03-27 13:35:00,48.1,27.7,30.33,WNW,292,1.0,14.0,45,0.00,,,0.00,Wunderground v.1.15,2013-03-27 18:35:00,
2013-03-27 13:45:00,48.1,28.8,30.33,NNW,340,2.0,14.0,47,0.00,,,0.00,Wunderground v.1.15,2013-03-27 18:45:00,
2013-03-27 13:54:00,48.1,28.8,30.33,North,3,3.0,14.0,47,0.00,,,0.00,Wunderground v.1.15,2013-03-27 18:54:00,
2013-03-27 14:04:00,48.6,29.3,30.33,North,9,2.0,14.0,47,0.00,,,0.00,Wunderground v.1.15,2013-03-27 19:04:00,
2013-03-27 14:09:00,48.6,29.3,30.33,NNE,25,3.0,3.0,47,0.00,,,0.00,Wunderground v.1.15,2013-03-27 19:09:00,
2013-03-27 14:20:00,48.9,29.0,30.32,North,10,3.0,3.0,46,0.00,,,0.00,Wunderground v.1.15,2013-03-27 19:20:00,
2013-03-27 14:30:00,49.8,30.9,30.32,North,9,2.0,14.0,48,0.00,,,0.00,Wunderground v.1.15,2013-03-27 19:30:00,
2013-03-27 14:39:00,49.6,29.1,30.31,NE,48,5.0,5.0,45,0.00,,,0.00,Wunderground v.1.15,2013-03-27 19:39:00,
2013-03-27 14:49:00,50.2,29.7,30.30,North,355,3.0,14.0,45,0.00,,,0.00,Wunderground v.1.15,2013-03-27 19:49:00,
2013-03-27 14:55:00,50.1,28.4,30.30,North,11,4.0,14.0,43,0.00,,,0.00,Wunderground v.1.15,2013-03-27 19:55:00,
2013-03-27 15:05:00,50.7,28.4,30.29,ENE,68,4.0,14.0,42,0.00,,,0.00,Wunderground v.1.15,2013-03-27 20:05:00,
2013-03-27 15:14:00,51.3,28.4,30.29,NNE,22,3.0,14.0,41,0.00,,,0.00,Wunderground v.1.15,2013-03-27 20:14:00,
2013-03-27 15:24:00,51.5,26.7,30.28,North,9,4.0,14.0,38,0.00,,,0.00,Wunderground v.1.15,2013-03-27 20:24:00,
2013-03-27 15:30:00,51.2,28.3,30.28,NNW,328,4.0,14.0,41,0.00,,,0.00,Wunderground v.1.15,2013-03-27 20:30:00,
2013-03-27 15:35:00,51.5,27.9,30.28,East,97,5.0,14.0,40,0.00,,,0.00,Wunderground v.1.15,2013-03-27 20:35:00,
2013-03-27 15:45:00,51.3,29.0,30.27,NNE,18,4.0,14.0,42,0.00,,,0.00,Wunderground v.1.15,2013-03-27 20:45:00,
2013-03-27 15:54:00,50.9,28.0,30.27,SE,128,4.0,14.0,41,0.00,,,0.00,Wunderground v.1.15,2013-03-27 20:54:00,
2013-03-27 16:04:00,50.8,29.1,30.26,NNW,335,3.0,14.0,43,0.00,,,0.00,Wunderground v.1.15,2013-03-27 21:04:00,
2013-03-27 16:15:00,50.9,29.7,30.26,NNW,334,4.0,14.0,44,0.00,,,0.00,Wunderground v.1.15,2013-03-27 21:15:00,
2013-03-27 16:25:00,51.2,30.0,30.26,NW,311,5.0,14.0,44,0.00,,,0.00,Wunderground v.1.15,2013-03-27 21:25:00,
2013-03-27 16:34:00,50.9,29.2,30.26,North,6,6.0,14.0,43,0.00,,,0.00,Wunderground v.1.15,2013-03-27 21:34:00,
2013-03-27 16:45:00,51.6,29.2,30.25,NNE,25,4.0,14.0,42,0.00,,,0.00,Wunderground v.1.15,2013-03-27 21:45:00,
2013-03-27 16:54:00,51.9,29.5,30.25,North,360,5.0,7.0,42,0.00,,,0.00,Wunderground v.1.15,2013-03-27 21:54:00,
2013-03-27 17:04:00,51.0,28.7,30.24,NNW,346,5.0,14.0,42,0.00,,,0.00,Wunderground v.1.15,2013-03-27 22:04:00,
2013-03-27 17:14:00,51.0,28.7,30.24,NW,317,4.0,14.0,42,0.00,,,0.00,Wunderground v.1.15,2013-03-27 22:14:00,
2013-03-27 17:20:00,50.8,28.5,30.24,NNW,345,4.0,4.0,42,0.00,,,0.00,Wunderground v.1.15,2013-03-27 22:20:00,
2013-03-27 17:30:00,50.8,28.5,30.24,NNE,15,5.0,5.0,42,0.00,,,0.00,Wunderground v.1.15,2013-03-27 22:30:00,
2013-03-27 17:39:00,51.2,29.4,30.24,NNE,12,3.0,14.0,43,0.00,,,0.00,Wunderground v.1.15,2013-03-27 22:39:00,
2013-03-27 17:49:00,51.2,29.4,30.23,NNE,23,3.0,3.0,43,0.00,,,0.00,Wunderground v.1.15,2013-03-27 22:49:00,
2013-03-27 18:00:00,51.0,29.8,30.23,NNE,20,5.0,14.0,44,0.00,,,0.00,Wunderground v.1.15,2013-03-27 23:00:00,
2013-03-27 18:10:00,51.2,29.4,30.24,NNE,27,4.0,14.0,43,0.00,,,0.00,Wunderground v.1.15,2013-03-27 23:10:00,
2013-03-27 18:19:00,51.6,29.2,30.24,NE,39,3.0,14.0,42,0.00,,,0.00,Wunderground v.1.15,2013-03-27 23:19:00,
2013-03-27 18:30:00,51.3,29.0,30.24,NNE,27,3.0,3.0,42,0.00,,,0.00,Wunderground v.1.15,2013-03-27 23:30:00,
2013-03-27 18:40:00,51.4,29.1,30.24,NE,44,3.0,3.0,42,0.00,,,0.00,Wunderground v.1.15,2013-03-27 23:40:00,
2013-03-27 18:50:00,51.0,28.7,30.24,NNE,19,4.0,14.0,42,0.00,,,0.00,Wunderground v.1.15,2013-03-27 23:50:00,
2013-03-27 18:59:00,50.6,28.9,30.24,NNE,13,4.0,4.0,43,0.00,,,0.00,Wunderground v.1.15,2013-03-27 23:59:00,
2013-03-27 19:10:00,50.3,29.2,30.24,NNE,25,3.0,14.0,44,0.00,,,0.00,Wunderground v.1.15,2013-03-28 00:10:00,
2013-03-27 19:20:00,50.1,29.0,30.24,NNE,30,2.0,2.0,44,0.00,,,0.00,Wunderground v.1.15,2013-03-28 00:20:00,
2013-03-27 19:29:00,49.7,29.7,30.25,NE,44,1.0,14.0,46,0.00,,,0.00,Wunderground v.1.15,2013-03-28 00:29:00,
2013-03-27 19:39:00,49.5,29.0,30.25,NNE,25,2.0,2.0,45,0.00,,,0.00,Wunderground v.1.15,2013-03-28 00:39:00,
2013-03-27 19:50:00,49.2,29.3,30.25,North,349,1.0,14.0,46,0.00,,,0.00,Wunderground v.1.15,2013-03-28 00:50:00,
2013-03-27 20:00:00,48.9,29.0,30.25,NNW,328,1.0,14.0,46,0.00,,,0.00,Wunderground v.1.15,2013-03-28 01:00:00,
2013-03-27 20:09:00,48.8,29.4,30.25,NNE,15,1.0,1.0,47,0.00,,,0.00,Wunderground v.1.15,2013-03-28 01:09:00,
2013-03-27 20:19:00,48.7,29.4,30.26,North,3,1.0,14.0,47,0.00,,,0.00,Wunderground v.1.15,2013-03-28 01:19:00,
2013-03-27 20:30:00,48.7,29.4,30.26,NW,316,1.0,1.0,47,0.00,,,0.00,Wunderground v.1.15,2013-03-28 01:30:00,
2013-03-27 20:40:00,48.3,29.5,30.26,NNW,340,1.0,14.0,48,0.00,,,0.00,Wunderground v.1.15,2013-03-28 01:40:00,
2013-03-27 20:49:00,48.1,29.8,30.27,NNW,328,1.0,14.0,49,0.00,,,0.00,Wunderground v.1.15,2013-03-28 01:49:00,
2013-03-27 21:00:00,48.0,30.2,30.27,NW,321,1.0,14.0,50,0.00,,,0.00,Wunderground v.1.15,2013-03-28 02:00:00,
2013-03-27 21:10:00,47.8,30.5,30.27,NNW,333,2.0,14.0,51,0.00,,,0.00,Wunderground v.1.15,2013-03-28 02:10:00,
2013-03-27 21:20:00,47.6,30.8,30.27,NW,319,2.0,2.0,52,0.00,,,0.00,Wunderground v.1.15,2013-03-28 02:20:00,
2013-03-27 21:29:00,47.3,31.5,30.28,NW,323,2.0,2.0,54,0.00,,,0.00,Wunderground v.1.15,2013-03-28 02:29:00,
2013-03-27 21:40:00,47.1,31.7,30.28,NW,321,2.0,2.0,55,0.00,,,0.00,Wunderground v.1.15,2013-03-28 02:40:00,
2013-03-27 21:50:00,47.1,31.7,30.28,NNW,347,1.0,14.0,55,0.00,,,0.00,Wunderground v.1.15,2013-03-28 02:50:00,
2013-03-27 21:59:00,47.1,32.2,30.28,NNE,32,1.0,14.0,56,0.00,,,0.00,Wunderground v.1.15,2013-03-28 02:59:00,
2013-03-27 22:09:00,46.9,32.0,30.28,NNE,29,1.0,1.0,56,0.00,,,0.00,Wunderground v.1.15,2013-03-28 03:09:00,
2013-03-27 22:20:00,46.9,31.6,30.28,NNE,25,1.0,14.0,55,0.00,,,0.00,Wunderground v.1.15,2013-03-28 03:20:00,
2013-03-27 22:30:00,47.0,31.7,30.28,NNE,15,2.0,2.0,55,0.00,,,0.00,Wunderground v.1.15,2013-03-28 03:30:00,
2013-03-27 22:39:00,46.9,31.6,30.28,NNE,27,1.0,14.0,55,0.00,,,0.00,Wunderground v.1.15,2013-03-28 03:39:00,
2013-03-27 22:49:00,46.9,31.6,30.28,NNE,13,1.0,1.0,55,0.00,,,0.00,Wunderground v.1.15,2013-03-28 03:49:00,
2013-03-27 23:00:00,46.8,31.5,30.28,NNW,328,1.0,14.0,55,0.00,,,0.00,Wunderground v.1.15,2013-03-28 04:00:00,
2013-03-27 23:05:00,46.8,31.5,30.28,NNE,14,1.0,14.0,55,0.00,,,0.00,Wunderground v.1.15,2013-03-28 04:05:00,
2013-03-27 23:10:00,46.7,31.4,30.28,North,359,1.0,14.0,55,0.00,,,0.00,Wunderground v.1.15,2013-03-28 04:10:00,
2013-03-27 23:14:00,46.7,31.4,30.28,NE,39,1.0,14.0,55,0.00,,,0.00,Wunderground v.1.15,2013-03-28 04:14:00,
2013-03-27 23:24:00,46.6,31.3,30.27,NNE,27,2.0,14.0,55,0.00,,,0.00,Wunderground v.1.15,2013-03-28 04:24:00,
2013-03-27 23:35:00,46.5,31.2,30.27,North,11,1.0,14.0,55,0.00,,,0.00,Wunderground v.1.15,2013-03-28 04:35:00,
2013-03-27 23:45:00,46.4,31.1,30.27,NW,309,1.0,14.0,55,0.00,,,0.00,Wunderground v.1.15,2013-03-28 04:45:00,
2013-03-27 23:54:00,46.3,31.4,30.27,North,358,0.0,2.0,56,0.00,,,0.00,Wunderground v.1.15,2013-03-28 04:54:00,